sensor_id;sensor_type;location;lat;lon;timestamp;P1;durP1;ratioP1;P2;durP2;ratioP2
53479;SDS011;56133;51.012;-1.648;2022-07-29T00:02:02;11.15;;;5.40;;
53479;SDS011;56133;51.012;-1.648;2022-07-29T00:04:27;8.60;;;6.15;;
53479;SDS011;56133;51.012;-1.648;2022-07-29T00:06:53;14.20;;;6.70;;
53479;SDS011;56133;51.012;-1.648;2022-07-29T00:09:18;8.50;;;5.90;;
53479;SDS011;56133;51.012;-1.648;2022-07-29T00:11:43;8.90;;;5.50;;
53479;SDS011;56133;51.012;-1.648;2022-07-29T00:14:09;8.48;;;5.00;;
53479;SDS011;56133;51.012;-1.648;2022-07-29T00:16:34;9.15;;;4.63;;
53479;SDS011;56133;51.012;-1.648;2022-07-29T00:19:00;8.43;;;4.40;;
53479;SDS011;56133;51.012;-1.648;2022-07-29T00:21:25;7.53;;;4.32;;
53479;SDS011;56133;51.012;-1.648;2022-07-29T00:23:51;7.63;;;4.10;;
53479;SDS011;56133;51.012;-1.648;2022-07-29T00:26:16;9.85;;;4.38;;
53479;SDS011;56133;51.012;-1.648;2022-07-29T00:28:41;6.85;;;3.90;;
53479;SDS011;56133;51.012;-1.648;2022-07-29T00:31:07;7.25;;;3.85;;
53479;SDS011;56133;51.012;-1.648;2022-07-29T00:33:33;8.15;;;3.75;;
53479;SDS011;56133;51.012;-1.648;2022-07-29T00:35:58;6.57;;;3.67;;
53479;SDS011;56133;51.012;-1.648;2022-07-29T00:38:24;9.85;;;4.05;;
53479;SDS011;56133;51.012;-1.648;2022-07-29T00:40:49;9.27;;;3.90;;
53479;SDS011;56133;51.012;-1.648;2022-07-29T00:43:15;5.25;;;3.47;;
53479;SDS011;56133;51.012;-1.648;2022-07-29T00:45:41;6.47;;;4.13;;
53479;SDS011;56133;51.012;-1.648;2022-07-29T00:48:07;8.93;;;3.78;;
53479;SDS011;56133;51.012;-1.648;2022-07-29T00:50:34;7.57;;;4.30;;
53479;SDS011;56133;51.012;-1.648;2022-07-29T00:53:00;8.57;;;4.00;;
53479;SDS011;56133;51.012;-1.648;2022-07-29T00:55:27;7.00;;;3.38;;
53479;SDS011;56133;51.012;-1.648;2022-07-29T00:57:53;10.13;;;3.47;;
53479;SDS011;56133;51.012;-1.648;2022-07-29T01:00:21;7.18;;;3.72;;
53479;SDS011;56133;51.012;-1.648;2022-07-29T01:02:50;5.07;;;2.92;;
53479;SDS011;56133;51.012;-1.648;2022-07-29T01:05:19;6.78;;;3.80;;
53479;SDS011;56133;51.012;-1.648;2022-07-29T01:07:47;9.70;;;4.13;;
53479;SDS011;56133;51.012;-1.648;2022-07-29T01:10:16;8.80;;;3.80;;
53479;SDS011;56133;51.012;-1.648;2022-07-29T01:12:43;7.47;;;3.70;;
53479;SDS011;56133;51.012;-1.648;2022-07-29T01:15:11;7.30;;;3.70;;
53479;SDS011;56133;51.012;-1.648;2022-07-29T01:26:27;8.43;;;3.20;;
53479;SDS011;56133;51.012;-1.648;2022-07-29T01:39:54;5.10;;;2.53;;
53479;SDS011;56133;51.012;-1.648;2022-07-29T01:44:59;5.72;;;2.90;;
53479;SDS011;56133;51.012;-1.648;2022-07-29T01:50:23;6.32;;;2.90;;
53479;SDS011;56133;51.012;-1.648;2022-07-29T01:53:02;8.50;;;3.10;;
53479;SDS011;56133;51.012;-1.648;2022-07-29T01:55:32;9.52;;;3.10;;
53479;SDS011;56133;51.012;-1.648;2022-07-29T01:58:02;7.15;;;2.90;;
53479;SDS011;56133;51.012;-1.648;2022-07-29T02:00:30;7.70;;;3.72;;
53479;SDS011;56133;51.012;-1.648;2022-07-29T02:02:57;8.82;;;3.42;;
53479;SDS011;56133;51.012;-1.648;2022-07-29T02:05:25;7.45;;;3.83;;
53479;SDS011;56133;51.012;-1.648;2022-07-29T02:07:53;5.82;;;3.63;;
53479;SDS011;56133;51.012;-1.648;2022-07-29T02:10:24;8.18;;;3.78;;
53479;SDS011;56133;51.012;-1.648;2022-07-29T02:12:52;7.25;;;3.70;;
53479;SDS011;56133;51.012;-1.648;2022-07-29T02:15:21;10.65;;;3.92;;
53479;SDS011;56133;51.012;-1.648;2022-07-29T02:17:55;7.72;;;3.60;;
53479;SDS011;56133;51.012;-1.648;2022-07-29T02:20:24;6.97;;;3.38;;
53479;SDS011;56133;51.012;-1.648;2022-07-29T02:22:51;7.20;;;3.80;;
53479;SDS011;56133;51.012;-1.648;2022-07-29T02:25:18;6.93;;;3.35;;
53479;SDS011;56133;51.012;-1.648;2022-07-29T02:27:46;6.32;;;3.88;;
53479;SDS011;56133;51.012;-1.648;2022-07-29T02:30:13;8.35;;;3.55;;
53479;SDS011;56133;51.012;-1.648;2022-07-29T02:32:39;7.95;;;3.97;;
53479;SDS011;56133;51.012;-1.648;2022-07-29T02:35:07;8.32;;;3.90;;
53479;SDS011;56133;51.012;-1.648;2022-07-29T02:37:35;11.05;;;4.20;;
53479;SDS011;56133;51.012;-1.648;2022-07-29T02:40:02;9.05;;;4.35;;
53479;SDS011;56133;51.012;-1.648;2022-07-29T02:42:28;8.43;;;4.00;;
53479;SDS011;56133;51.012;-1.648;2022-07-29T02:44:55;7.22;;;3.90;;
53479;SDS011;56133;51.012;-1.648;2022-07-29T02:47:25;7.05;;;4.20;;
53479;SDS011;56133;51.012;-1.648;2022-07-29T02:52:39;8.57;;;4.50;;
53479;SDS011;56133;51.012;-1.648;2022-07-29T02:55:12;7.80;;;4.18;;
53479;SDS011;56133;51.012;-1.648;2022-07-29T02:57:43;6.97;;;4.20;;
53479;SDS011;56133;51.012;-1.648;2022-07-29T03:00:11;7.05;;;4.50;;
53479;SDS011;56133;51.012;-1.648;2022-07-29T03:02:39;7.50;;;4.53;;
53479;SDS011;56133;51.012;-1.648;2022-07-29T03:05:09;8.00;;;4.30;;
53479;SDS011;56133;51.012;-1.648;2022-07-29T03:07:40;7.97;;;4.22;;
53479;SDS011;56133;51.012;-1.648;2022-07-29T03:10:10;8.15;;;3.90;;
53479;SDS011;56133;51.012;-1.648;2022-07-29T03:12:37;7.90;;;4.10;;
53479;SDS011;56133;51.012;-1.648;2022-07-29T03:15:03;6.85;;;4.00;;
53479;SDS011;56133;51.012;-1.648;2022-07-29T03:17:30;6.53;;;3.85;;
53479;SDS011;56133;51.012;-1.648;2022-07-29T03:19:57;5.95;;;3.80;;
53479;SDS011;56133;51.012;-1.648;2022-07-29T03:22:23;8.02;;;3.92;;
53479;SDS011;56133;51.012;-1.648;2022-07-29T03:24:49;8.63;;;4.05;;
53479;SDS011;56133;51.012;-1.648;2022-07-29T03:27:15;6.47;;;3.47;;
53479;SDS011;56133;51.012;-1.648;2022-07-29T03:29:41;7.25;;;3.45;;
53479;SDS011;56133;51.012;-1.648;2022-07-29T03:32:07;8.23;;;3.42;;
53479;SDS011;56133;51.012;-1.648;2022-07-29T03:34:32;10.98;;;3.55;;
53479;SDS011;56133;51.012;-1.648;2022-07-29T03:36:57;6.25;;;3.47;;
53479;SDS011;56133;51.012;-1.648;2022-07-29T03:39:24;8.57;;;3.58;;
53479;SDS011;56133;51.012;-1.648;2022-07-29T03:41:54;6.32;;;2.90;;
53479;SDS011;56133;51.012;-1.648;2022-07-29T03:44:21;7.50;;;2.97;;
53479;SDS011;56133;51.012;-1.648;2022-07-29T03:46:49;5.15;;;3.33;;
53479;SDS011;56133;51.012;-1.648;2022-07-29T03:49:17;7.32;;;2.90;;
53479;SDS011;56133;51.012;-1.648;2022-07-29T03:51:44;8.77;;;4.18;;
53479;SDS011;56133;51.012;-1.648;2022-07-29T03:54:10;6.28;;;2.70;;
53479;SDS011;56133;51.012;-1.648;2022-07-29T03:56:40;6.20;;;3.20;;
53479;SDS011;56133;51.012;-1.648;2022-07-29T03:59:11;5.32;;;2.97;;
53479;SDS011;56133;51.012;-1.648;2022-07-29T04:01:38;6.38;;;2.85;;
53479;SDS011;56133;51.012;-1.648;2022-07-29T04:04:05;6.45;;;3.03;;
53479;SDS011;56133;51.012;-1.648;2022-07-29T04:06:37;8.40;;;2.70;;
53479;SDS011;56133;51.012;-1.648;2022-07-29T04:09:04;8.35;;;2.90;;
53479;SDS011;56133;51.012;-1.648;2022-07-29T04:11:30;8.98;;;3.40;;
53479;SDS011;56133;51.012;-1.648;2022-07-29T04:13:55;5.15;;;2.88;;
53479;SDS011;56133;51.012;-1.648;2022-07-29T04:16:21;4.47;;;2.55;;
53479;SDS011;56133;51.012;-1.648;2022-07-29T04:18:46;7.97;;;3.38;;
53479;SDS011;56133;51.012;-1.648;2022-07-29T04:21:12;7.15;;;3.35;;
53479;SDS011;56133;51.012;-1.648;2022-07-29T04:23:37;6.63;;;3.28;;
53479;SDS011;56133;51.012;-1.648;2022-07-29T04:26:03;6.78;;;3.13;;
53479;SDS011;56133;51.012;-1.648;2022-07-29T04:28:28;6.18;;;2.85;;
53479;SDS011;56133;51.012;-1.648;2022-07-29T04:30:53;7.75;;;3.00;;
53479;SDS011;56133;51.012;-1.648;2022-07-29T04:33:19;7.70;;;3.22;;
53479;SDS011;56133;51.012;-1.648;2022-07-29T04:35:44;5.57;;;2.78;;
53479;SDS011;56133;51.012;-1.648;2022-07-29T04:38:10;4.35;;;2.83;;
53479;SDS011;56133;51.012;-1.648;2022-07-29T04:40:36;6.63;;;2.78;;
53479;SDS011;56133;51.012;-1.648;2022-07-29T04:43:01;7.30;;;2.75;;
53479;SDS011;56133;51.012;-1.648;2022-07-29T04:45:27;7.07;;;2.78;;
53479;SDS011;56133;51.012;-1.648;2022-07-29T04:47:53;7.10;;;2.58;;
53479;SDS011;56133;51.012;-1.648;2022-07-29T04:50:19;5.45;;;2.60;;
53479;SDS011;56133;51.012;-1.648;2022-07-29T04:52:44;4.53;;;2.40;;
53479;SDS011;56133;51.012;-1.648;2022-07-29T04:55:10;5.05;;;2.58;;
53479;SDS011;56133;51.012;-1.648;2022-07-29T04:57:35;8.27;;;2.50;;
53479;SDS011;56133;51.012;-1.648;2022-07-29T05:00:01;5.80;;;2.65;;
53479;SDS011;56133;51.012;-1.648;2022-07-29T05:02:27;4.82;;;2.65;;
53479;SDS011;56133;51.012;-1.648;2022-07-29T05:04:53;7.07;;;2.97;;
53479;SDS011;56133;51.012;-1.648;2022-07-29T05:07:18;7.82;;;2.58;;
53479;SDS011;56133;51.012;-1.648;2022-07-29T05:09:44;11.18;;;2.78;;
53479;SDS011;56133;51.012;-1.648;2022-07-29T05:12:09;9.25;;;2.83;;
53479;SDS011;56133;51.012;-1.648;2022-07-29T05:14:34;5.55;;;2.85;;
53479;SDS011;56133;51.012;-1.648;2022-07-29T05:17:00;5.88;;;2.58;;
53479;SDS011;56133;51.012;-1.648;2022-07-29T05:19:25;4.78;;;2.80;;
53479;SDS011;56133;51.012;-1.648;2022-07-29T05:21:51;5.80;;;2.80;;
53479;SDS011;56133;51.012;-1.648;2022-07-29T05:24:16;6.97;;;2.95;;
53479;SDS011;56133;51.012;-1.648;2022-07-29T05:26:42;7.85;;;2.80;;
53479;SDS011;56133;51.012;-1.648;2022-07-29T05:29:07;8.02;;;3.10;;
53479;SDS011;56133;51.012;-1.648;2022-07-29T05:31:33;6.78;;;2.70;;
53479;SDS011;56133;51.012;-1.648;2022-07-29T05:33:58;6.68;;;2.70;;
53479;SDS011;56133;51.012;-1.648;2022-07-29T05:36:24;6.65;;;2.45;;
53479;SDS011;56133;51.012;-1.648;2022-07-29T05:38:49;7.68;;;2.60;;
53479;SDS011;56133;51.012;-1.648;2022-07-29T05:41:17;7.10;;;2.33;;
53479;SDS011;56133;51.012;-1.648;2022-07-29T05:43:43;8.52;;;3.10;;
53479;SDS011;56133;51.012;-1.648;2022-07-29T05:46:08;7.18;;;2.80;;
53479;SDS011;56133;51.012;-1.648;2022-07-29T05:48:34;7.35;;;2.97;;
53479;SDS011;56133;51.012;-1.648;2022-07-29T05:50:59;8.75;;;2.72;;
53479;SDS011;56133;51.012;-1.648;2022-07-29T05:53:25;7.05;;;2.60;;
53479;SDS011;56133;51.012;-1.648;2022-07-29T05:55:50;7.50;;;2.58;;
53479;SDS011;56133;51.012;-1.648;2022-07-29T05:58:17;6.63;;;3.00;;
53479;SDS011;56133;51.012;-1.648;2022-07-29T06:00:42;8.90;;;3.08;;
53479;SDS011;56133;51.012;-1.648;2022-07-29T06:03:08;7.65;;;3.00;;
53479;SDS011;56133;51.012;-1.648;2022-07-29T06:05:34;4.85;;;2.67;;
53479;SDS011;56133;51.012;-1.648;2022-07-29T06:07:59;9.90;;;3.60;;
53479;SDS011;56133;51.012;-1.648;2022-07-29T06:10:25;5.57;;;2.80;;
53479;SDS011;56133;51.012;-1.648;2022-07-29T06:12:51;5.28;;;3.08;;
53479;SDS011;56133;51.012;-1.648;2022-07-29T06:15:17;8.55;;;3.45;;
53479;SDS011;56133;51.012;-1.648;2022-07-29T06:17:42;7.40;;;3.35;;
53479;SDS011;56133;51.012;-1.648;2022-07-29T06:20:08;10.20;;;3.30;;
53479;SDS011;56133;51.012;-1.648;2022-07-29T06:22:34;6.03;;;3.08;;
53479;SDS011;56133;51.012;-1.648;2022-07-29T06:25:00;9.40;;;3.50;;
53479;SDS011;56133;51.012;-1.648;2022-07-29T06:27:26;8.10;;;3.40;;
53479;SDS011;56133;51.012;-1.648;2022-07-29T06:29:52;7.53;;;3.08;;
53479;SDS011;56133;51.012;-1.648;2022-07-29T06:32:17;6.13;;;2.80;;
53479;SDS011;56133;51.012;-1.648;2022-07-29T06:34:44;7.70;;;3.22;;
53479;SDS011;56133;51.012;-1.648;2022-07-29T06:37:09;8.15;;;3.15;;
53479;SDS011;56133;51.012;-1.648;2022-07-29T06:39:35;7.40;;;3.20;;
53479;SDS011;56133;51.012;-1.648;2022-07-29T06:42:01;4.53;;;3.33;;
53479;SDS011;56133;51.012;-1.648;2022-07-29T06:44:28;6.05;;;3.00;;
53479;SDS011;56133;51.012;-1.648;2022-07-29T06:46:54;6.68;;;2.90;;
53479;SDS011;56133;51.012;-1.648;2022-07-29T06:49:20;5.85;;;2.95;;
53479;SDS011;56133;51.012;-1.648;2022-07-29T06:51:46;8.15;;;3.40;;
53479;SDS011;56133;51.012;-1.648;2022-07-29T06:54:11;6.47;;;2.67;;
53479;SDS011;56133;51.012;-1.648;2022-07-29T06:56:37;11.00;;;3.13;;
53479;SDS011;56133;51.012;-1.648;2022-07-29T06:59:03;7.53;;;3.05;;
53479;SDS011;56133;51.012;-1.648;2022-07-29T07:01:29;5.63;;;3.10;;
53479;SDS011;56133;51.012;-1.648;2022-07-29T07:03:55;4.95;;;2.60;;
53479;SDS011;56133;51.012;-1.648;2022-07-29T07:06:21;8.02;;;2.45;;
53479;SDS011;56133;51.012;-1.648;2022-07-29T07:08:46;5.65;;;2.90;;
53479;SDS011;56133;51.012;-1.648;2022-07-29T07:11:12;8.15;;;3.00;;
53479;SDS011;56133;51.012;-1.648;2022-07-29T07:13:37;7.13;;;2.45;;
53479;SDS011;56133;51.012;-1.648;2022-07-29T07:16:03;7.78;;;2.40;;
53479;SDS011;56133;51.012;-1.648;2022-07-29T07:18:29;8.45;;;2.38;;
53479;SDS011;56133;51.012;-1.648;2022-07-29T07:20:55;4.57;;;2.00;;
53479;SDS011;56133;51.012;-1.648;2022-07-29T07:23:21;6.15;;;2.08;;
53479;SDS011;56133;51.012;-1.648;2022-07-29T07:25:47;3.92;;;2.15;;
53479;SDS011;56133;51.012;-1.648;2022-07-29T07:28:12;5.43;;;2.42;;
53479;SDS011;56133;51.012;-1.648;2022-07-29T07:30:37;5.60;;;1.90;;
53479;SDS011;56133;51.012;-1.648;2022-07-29T07:33:04;5.40;;;2.03;;
53479;SDS011;56133;51.012;-1.648;2022-07-29T07:35:29;4.60;;;2.22;;
53479;SDS011;56133;51.012;-1.648;2022-07-29T07:37:55;9.55;;;2.60;;
53479;SDS011;56133;51.012;-1.648;2022-07-29T07:40:21;3.13;;;1.60;;
53479;SDS011;56133;51.012;-1.648;2022-07-29T07:42:47;6.93;;;2.08;;
53479;SDS011;56133;51.012;-1.648;2022-07-29T07:45:13;3.45;;;1.98;;
53479;SDS011;56133;51.012;-1.648;2022-07-29T07:47:38;3.70;;;1.70;;
53479;SDS011;56133;51.012;-1.648;2022-07-29T07:50:06;4.05;;;1.73;;
53479;SDS011;56133;51.012;-1.648;2022-07-29T07:52:33;3.42;;;1.95;;
53479;SDS011;56133;51.012;-1.648;2022-07-29T07:54:59;5.45;;;1.88;;
53479;SDS011;56133;51.012;-1.648;2022-07-29T07:57:25;4.38;;;1.63;;
53479;SDS011;56133;51.012;-1.648;2022-07-29T07:59:50;6.50;;;1.75;;
53479;SDS011;56133;51.012;-1.648;2022-07-29T08:02:16;8.02;;;1.73;;
53479;SDS011;56133;51.012;-1.648;2022-07-29T08:04:42;3.55;;;1.60;;
53479;SDS011;56133;51.012;-1.648;2022-07-29T08:07:07;5.85;;;1.92;;
53479;SDS011;56133;51.012;-1.648;2022-07-29T08:09:34;4.85;;;1.73;;
53479;SDS011;56133;51.012;-1.648;2022-07-29T08:12:00;4.97;;;2.30;;
53479;SDS011;56133;51.012;-1.648;2022-07-29T08:14:29;8.15;;;2.85;;
53479;SDS011;56133;51.012;-1.648;2022-07-29T08:16:55;7.50;;;3.53;;
53479;SDS011;56133;51.012;-1.648;2022-07-29T08:19:20;8.55;;;3.33;;
53479;SDS011;56133;51.012;-1.648;2022-07-29T08:21:46;9.05;;;3.50;;
53479;SDS011;56133;51.012;-1.648;2022-07-29T08:24:13;6.60;;;2.83;;
53479;SDS011;56133;51.012;-1.648;2022-07-29T08:26:56;7.65;;;3.08;;
53479;SDS011;56133;51.012;-1.648;2022-07-29T08:29:22;6.40;;;2.63;;
53479;SDS011;56133;51.012;-1.648;2022-07-29T08:31:47;6.35;;;2.45;;
53479;SDS011;56133;51.012;-1.648;2022-07-29T08:34:13;6.43;;;2.45;;
53479;SDS011;56133;51.012;-1.648;2022-07-29T08:36:38;7.70;;;2.28;;
53479;SDS011;56133;51.012;-1.648;2022-07-29T08:39:04;7.65;;;2.60;;
53479;SDS011;56133;51.012;-1.648;2022-07-29T08:41:29;6.15;;;2.35;;
53479;SDS011;56133;51.012;-1.648;2022-07-29T08:43:56;5.95;;;2.90;;
53479;SDS011;56133;51.012;-1.648;2022-07-29T08:46:21;7.50;;;2.63;;
53479;SDS011;56133;51.012;-1.648;2022-07-29T08:48:47;4.47;;;1.67;;
53479;SDS011;56133;51.012;-1.648;2022-07-29T08:51:19;3.53;;;1.58;;
53479;SDS011;56133;51.012;-1.648;2022-07-29T08:53:46;3.97;;;1.60;;
53479;SDS011;56133;51.012;-1.648;2022-07-29T08:56:17;5.38;;;1.38;;
53479;SDS011;56133;51.012;-1.648;2022-07-29T08:58:44;5.03;;;1.55;;
53479;SDS011;56133;51.012;-1.648;2022-07-29T09:01:16;4.78;;;1.45;;
53479;SDS011;56133;51.012;-1.648;2022-07-29T09:03:43;3.45;;;1.38;;
53479;SDS011;56133;51.012;-1.648;2022-07-29T09:06:13;3.22;;;1.40;;
53479;SDS011;56133;51.012;-1.648;2022-07-29T09:08:40;2.42;;;1.00;;
53479;SDS011;56133;51.012;-1.648;2022-07-29T09:11:06;2.97;;;1.17;;
53479;SDS011;56133;51.012;-1.648;2022-07-29T09:13:34;3.63;;;1.52;;
53479;SDS011;56133;51.012;-1.648;2022-07-29T09:15:59;7.40;;;1.80;;
53479;SDS011;56133;51.012;-1.648;2022-07-29T09:18:34;5.25;;;1.50;;
53479;SDS011;56133;51.012;-1.648;2022-07-29T09:21:08;4.40;;;1.20;;
53479;SDS011;56133;51.012;-1.648;2022-07-29T09:26:37;1.95;;;1.10;;
53479;SDS011;56133;51.012;-1.648;2022-07-29T09:31:42;2.97;;;1.20;;
53479;SDS011;56133;51.012;-1.648;2022-07-29T09:34:21;2.05;;;1.08;;
53479;SDS011;56133;51.012;-1.648;2022-07-29T09:36:52;3.17;;;0.95;;
53479;SDS011;56133;51.012;-1.648;2022-07-29T09:39:29;3.05;;;1.20;;
53479;SDS011;56133;51.012;-1.648;2022-07-29T09:42:01;2.97;;;0.85;;
53479;SDS011;56133;51.012;-1.648;2022-07-29T09:44:46;1.85;;;0.90;;
53479;SDS011;56133;51.012;-1.648;2022-07-29T09:47:13;2.60;;;0.80;;
53479;SDS011;56133;51.012;-1.648;2022-07-29T09:49:53;3.42;;;1.10;;
53479;SDS011;56133;51.012;-1.648;2022-07-29T09:52:23;3.25;;;0.90;;
53479;SDS011;56133;51.012;-1.648;2022-07-29T09:54:49;2.72;;;1.00;;
53479;SDS011;56133;51.012;-1.648;2022-07-29T09:57:26;3.55;;;1.00;;
53479;SDS011;56133;51.012;-1.648;2022-07-29T10:00:04;1.85;;;0.93;;
53479;SDS011;56133;51.012;-1.648;2022-07-29T10:02:33;3.38;;;0.90;;
53479;SDS011;56133;51.012;-1.648;2022-07-29T10:05:02;2.85;;;0.80;;
53479;SDS011;56133;51.012;-1.648;2022-07-29T10:07:52;2.20;;;0.75;;
53479;SDS011;56133;51.012;-1.648;2022-07-29T10:10:28;2.22;;;0.70;;
53479;SDS011;56133;51.012;-1.648;2022-07-29T10:12:56;1.90;;;0.77;;
53479;SDS011;56133;51.012;-1.648;2022-07-29T10:15:23;2.42;;;0.90;;
53479;SDS011;56133;51.012;-1.648;2022-07-29T10:17:53;7.57;;;0.75;;
53479;SDS011;56133;51.012;-1.648;2022-07-29T10:20:20;2.88;;;0.90;;
53479;SDS011;56133;51.012;-1.648;2022-07-29T10:22:46;3.42;;;0.75;;
53479;SDS011;56133;51.012;-1.648;2022-07-29T10:25:13;2.53;;;0.70;;
53479;SDS011;56133;51.012;-1.648;2022-07-29T10:27:41;4.30;;;1.17;;
53479;SDS011;56133;51.012;-1.648;2022-07-29T10:30:08;3.17;;;0.88;;
53479;SDS011;56133;51.012;-1.648;2022-07-29T10:43:53;2.85;;;0.77;;
53479;SDS011;56133;51.012;-1.648;2022-07-29T10:46:20;1.65;;;0.80;;
53479;SDS011;56133;51.012;-1.648;2022-07-29T10:59:44;5.15;;;1.10;;
53479;SDS011;56133;51.012;-1.648;2022-07-29T11:07:31;3.58;;;0.90;;
53479;SDS011;56133;51.012;-1.648;2022-07-29T11:15:05;3.38;;;1.00;;
53479;SDS011;56133;51.012;-1.648;2022-07-29T11:20:33;2.65;;;0.80;;
53479;SDS011;56133;51.012;-1.648;2022-07-29T11:26:12;3.42;;;0.90;;
53479;SDS011;56133;51.012;-1.648;2022-07-29T11:31:34;5.53;;;1.00;;
53479;SDS011;56133;51.012;-1.648;2022-07-29T11:34:41;4.07;;;0.90;;
53479;SDS011;56133;51.012;-1.648;2022-07-29T11:44:59;4.25;;;0.98;;
53479;SDS011;56133;51.012;-1.648;2022-07-29T11:47:26;3.25;;;0.82;;
53479;SDS011;56133;51.012;-1.648;2022-07-29T11:49:54;1.63;;;0.90;;
53479;SDS011;56133;51.012;-1.648;2022-07-29T11:52:21;3.22;;;1.00;;
53479;SDS011;56133;51.012;-1.648;2022-07-29T11:54:48;2.60;;;0.90;;
53479;SDS011;56133;51.012;-1.648;2022-07-29T11:57:16;4.32;;;1.00;;
53479;SDS011;56133;51.012;-1.648;2022-07-29T11:59:43;3.45;;;0.85;;
53479;SDS011;56133;51.012;-1.648;2022-07-29T12:02:10;3.65;;;1.25;;
53479;SDS011;56133;51.012;-1.648;2022-07-29T12:07:31;4.22;;;0.90;;
53479;SDS011;56133;51.012;-1.648;2022-07-29T12:09:58;3.85;;;1.00;;
53479;SDS011;56133;51.012;-1.648;2022-07-29T12:12:24;1.88;;;0.85;;
53479;SDS011;56133;51.012;-1.648;2022-07-29T12:14:50;3.80;;;1.15;;
53479;SDS011;56133;51.012;-1.648;2022-07-29T12:17:29;6.07;;;1.08;;
53479;SDS011;56133;51.012;-1.648;2022-07-29T12:19:56;3.85;;;1.08;;
53479;SDS011;56133;51.012;-1.648;2022-07-29T12:22:42;3.10;;;1.02;;
53479;SDS011;56133;51.012;-1.648;2022-07-29T12:25:10;7.35;;;0.93;;
53479;SDS011;56133;51.012;-1.648;2022-07-29T12:27:37;4.95;;;1.15;;
53479;SDS011;56133;51.012;-1.648;2022-07-29T12:30:10;5.15;;;1.00;;
53479;SDS011;56133;51.012;-1.648;2022-07-29T12:32:41;4.13;;;1.05;;
53479;SDS011;56133;51.012;-1.648;2022-07-29T12:35:18;2.33;;;1.02;;
53479;SDS011;56133;51.012;-1.648;2022-07-29T12:37:46;1.83;;;1.00;;
53479;SDS011;56133;51.012;-1.648;2022-07-29T12:40:14;4.22;;;1.13;;
53479;SDS011;56133;51.012;-1.648;2022-07-29T12:43:04;3.22;;;1.10;;
53479;SDS011;56133;51.012;-1.648;2022-07-29T12:45:37;2.83;;;0.90;;
53479;SDS011;56133;51.012;-1.648;2022-07-29T12:48:05;6.32;;;1.33;;
53479;SDS011;56133;51.012;-1.648;2022-07-29T12:50:33;3.10;;;0.80;;
53479;SDS011;56133;51.012;-1.648;2022-07-29T12:53:09;4.30;;;1.02;;
53479;SDS011;56133;51.012;-1.648;2022-07-29T12:55:43;2.75;;;1.08;;
53479;SDS011;56133;51.012;-1.648;2022-07-29T12:58:13;3.25;;;1.13;;
53479;SDS011;56133;51.012;-1.648;2022-07-29T13:00:58;1.63;;;0.98;;
53479;SDS011;56133;51.012;-1.648;2022-07-29T13:03:44;2.65;;;1.02;;
53479;SDS011;56133;51.012;-1.648;2022-07-29T13:08:58;2.20;;;0.90;;
53479;SDS011;56133;51.012;-1.648;2022-07-29T13:11:30;2.10;;;0.90;;
53479;SDS011;56133;51.012;-1.648;2022-07-29T13:13:57;5.50;;;0.98;;
53479;SDS011;56133;51.012;-1.648;2022-07-29T13:16:23;3.38;;;1.17;;
53479;SDS011;56133;51.012;-1.648;2022-07-29T13:19:02;3.50;;;1.10;;
53479;SDS011;56133;51.012;-1.648;2022-07-29T13:21:31;5.68;;;0.95;;
53479;SDS011;56133;51.012;-1.648;2022-07-29T13:23:56;3.58;;;1.02;;
53479;SDS011;56133;51.012;-1.648;2022-07-29T13:26:22;2.63;;;1.10;;
53479;SDS011;56133;51.012;-1.648;2022-07-29T13:28:47;2.90;;;1.25;;
53479;SDS011;56133;51.012;-1.648;2022-07-29T13:31:13;2.17;;;1.10;;
53479;SDS011;56133;51.012;-1.648;2022-07-29T13:33:38;3.25;;;1.20;;
53479;SDS011;56133;51.012;-1.648;2022-07-29T13:36:03;2.17;;;0.90;;
53479;SDS011;56133;51.012;-1.648;2022-07-29T13:38:29;2.38;;;1.00;;
53479;SDS011;56133;51.012;-1.648;2022-07-29T13:40:54;2.90;;;0.95;;
53479;SDS011;56133;51.012;-1.648;2022-07-29T13:43:20;1.83;;;0.90;;
53479;SDS011;56133;51.012;-1.648;2022-07-29T13:45:45;3.28;;;0.73;;
53479;SDS011;56133;51.012;-1.648;2022-07-29T13:48:11;3.17;;;1.00;;
53479;SDS011;56133;51.012;-1.648;2022-07-29T13:50:36;3.63;;;0.88;;
53479;SDS011;56133;51.012;-1.648;2022-07-29T13:53:02;2.70;;;0.70;;
53479;SDS011;56133;51.012;-1.648;2022-07-29T13:55:27;6.68;;;1.13;;
53479;SDS011;56133;51.012;-1.648;2022-07-29T13:57:52;1.88;;;0.80;;
53479;SDS011;56133;51.012;-1.648;2022-07-29T14:00:18;2.15;;;0.80;;
53479;SDS011;56133;51.012;-1.648;2022-07-29T14:02:44;2.50;;;0.90;;
53479;SDS011;56133;51.012;-1.648;2022-07-29T14:05:09;3.25;;;0.90;;
53479;SDS011;56133;51.012;-1.648;2022-07-29T14:07:35;2.78;;;0.90;;
53479;SDS011;56133;51.012;-1.648;2022-07-29T14:10:03;2.80;;;1.00;;
53479;SDS011;56133;51.012;-1.648;2022-07-29T14:12:29;4.22;;;1.05;;
53479;SDS011;56133;51.012;-1.648;2022-07-29T14:14:55;4.95;;;1.20;;
53479;SDS011;56133;51.012;-1.648;2022-07-29T14:17:20;3.25;;;0.90;;
53479;SDS011;56133;51.012;-1.648;2022-07-29T14:19:46;3.05;;;1.10;;
53479;SDS011;56133;51.012;-1.648;2022-07-29T14:22:12;3.75;;;1.10;;
53479;SDS011;56133;51.012;-1.648;2022-07-29T14:24:37;4.75;;;1.00;;
53479;SDS011;56133;51.012;-1.648;2022-07-29T14:27:03;3.05;;;1.25;;
53479;SDS011;56133;51.012;-1.648;2022-07-29T14:29:32;2.80;;;1.00;;
53479;SDS011;56133;51.012;-1.648;2022-07-29T14:31:58;3.88;;;1.05;;
53479;SDS011;56133;51.012;-1.648;2022-07-29T14:34:23;7.00;;;1.30;;
53479;SDS011;56133;51.012;-1.648;2022-07-29T14:36:49;3.72;;;1.00;;
53479;SDS011;56133;51.012;-1.648;2022-07-29T14:39:14;3.33;;;1.00;;
53479;SDS011;56133;51.012;-1.648;2022-07-29T14:41:41;3.25;;;0.85;;
53479;SDS011;56133;51.012;-1.648;2022-07-29T14:44:06;4.18;;;1.10;;
53479;SDS011;56133;51.012;-1.648;2022-07-29T14:46:32;3.75;;;1.10;;
53479;SDS011;56133;51.012;-1.648;2022-07-29T14:48:58;3.80;;;1.17;;
53479;SDS011;56133;51.012;-1.648;2022-07-29T14:51:23;3.92;;;1.30;;
53479;SDS011;56133;51.012;-1.648;2022-07-29T14:53:48;3.53;;;1.25;;
53479;SDS011;56133;51.012;-1.648;2022-07-29T14:56:14;2.50;;;1.05;;
53479;SDS011;56133;51.012;-1.648;2022-07-29T14:58:39;3.03;;;1.05;;
53479;SDS011;56133;51.012;-1.648;2022-07-29T15:01:05;5.03;;;1.10;;
53479;SDS011;56133;51.012;-1.648;2022-07-29T15:03:31;3.30;;;1.00;;
53479;SDS011;56133;51.012;-1.648;2022-07-29T15:05:56;1.30;;;0.90;;
53479;SDS011;56133;51.012;-1.648;2022-07-29T15:08:22;2.92;;;1.10;;
53479;SDS011;56133;51.012;-1.648;2022-07-29T15:10:47;4.55;;;1.10;;
53479;SDS011;56133;51.012;-1.648;2022-07-29T15:13:13;6.82;;;0.90;;
53479;SDS011;56133;51.012;-1.648;2022-07-29T15:15:38;2.05;;;1.00;;
53479;SDS011;56133;51.012;-1.648;2022-07-29T15:18:04;3.63;;;1.00;;
53479;SDS011;56133;51.012;-1.648;2022-07-29T15:20:29;9.15;;;1.55;;
53479;SDS011;56133;51.012;-1.648;2022-07-29T15:22:55;3.72;;;1.33;;
53479;SDS011;56133;51.012;-1.648;2022-07-29T15:25:22;2.38;;;1.17;;
53479;SDS011;56133;51.012;-1.648;2022-07-29T15:27:48;3.67;;;1.15;;
53479;SDS011;56133;51.012;-1.648;2022-07-29T15:30:13;4.43;;;1.75;;
53479;SDS011;56133;51.012;-1.648;2022-07-29T15:32:41;2.08;;;1.08;;
53479;SDS011;56133;51.012;-1.648;2022-07-29T15:35:07;2.08;;;1.05;;
53479;SDS011;56133;51.012;-1.648;2022-07-29T15:37:35;2.85;;;1.17;;
53479;SDS011;56133;51.012;-1.648;2022-07-29T15:40:01;5.97;;;1.10;;
53479;SDS011;56133;51.012;-1.648;2022-07-29T15:42:26;5.75;;;1.48;;
53479;SDS011;56133;51.012;-1.648;2022-07-29T15:44:52;4.43;;;1.08;;
53479;SDS011;56133;51.012;-1.648;2022-07-29T15:47:17;1.65;;;1.20;;
53479;SDS011;56133;51.012;-1.648;2022-07-29T15:49:43;5.35;;;1.40;;
53479;SDS011;56133;51.012;-1.648;2022-07-29T15:52:09;3.65;;;1.30;;
53479;SDS011;56133;51.012;-1.648;2022-07-29T15:54:36;3.28;;;1.20;;
53479;SDS011;56133;51.012;-1.648;2022-07-29T15:57:03;6.18;;;1.40;;
53479;SDS011;56133;51.012;-1.648;2022-07-29T15:59:31;4.00;;;1.30;;
53479;SDS011;56133;51.012;-1.648;2022-07-29T16:01:57;5.25;;;1.30;;
53479;SDS011;56133;51.012;-1.648;2022-07-29T16:04:26;3.05;;;1.27;;